createdAt,value
2023-05-21T00:00:15.190Z,90.3
2023-05-21T00:01:31.482Z,90.4
2023-05-21T00:02:47.758Z,90.5
2023-05-21T00:04:04.068Z,90.6
2023-05-21T00:05:20.360Z,90.6
2023-05-21T00:06:36.640Z,90.7
2023-05-21T00:07:52.925Z,90.6
2023-05-21T00:09:09.220Z,90.7
2023-05-21T00:10:24.548Z,90.8
2023-05-21T00:11:40.829Z,90.8
2023-05-21T00:12:57.134Z,90.9
2023-05-21T00:14:13.427Z,90.8
2023-05-21T00:15:29.720Z,90.9
2023-05-21T00:16:46.012Z,90.9
2023-05-21T00:18:02.276Z,90.9
2023-05-21T00:19:18.573Z,90.8
2023-05-21T00:20:34.888Z,91
2023-05-21T00:21:51.184Z,91
2023-05-21T00:23:07.477Z,91
2023-05-21T00:24:23.770Z,91.1
2023-05-21T00:25:40.063Z,91.1
2023-05-21T00:26:55.350Z,91.2
2023-05-21T00:28:11.665Z,91.2
2023-05-21T00:29:27.958Z,91.2
2023-05-21T00:30:44.251Z,91.3
2023-05-21T00:32:00.534Z,91.3
2023-05-21T00:33:16.825Z,91.2
2023-05-21T00:34:32.151Z,91.1
2023-05-21T00:35:48.425Z,91.3
2023-05-21T00:37:04.723Z,91.4
2023-05-21T00:38:21.014Z,91.6
2023-05-21T00:39:37.323Z,91.7
2023-05-21T00:40:53.595Z,91.7
2023-05-21T00:42:09.897Z,91.8
2023-05-21T00:43:26.203Z,91.9
2023-05-21T00:44:42.493Z,92
2023-05-21T00:45:58.788Z,92.2
2023-05-21T00:47:15.081Z,92.3
2023-05-21T00:48:31.373Z,92.5
2023-05-21T00:49:47.666Z,92.6
2023-05-21T00:51:03.000Z,92.7
2023-05-21T00:52:19.237Z,92.7
2023-05-21T00:53:35.544Z,92.7
2023-05-21T00:54:51.854Z,92.9
2023-05-21T00:56:08.133Z,92.8
2023-05-21T00:57:24.440Z,92.8
2023-05-21T00:58:40.720Z,92.9
2023-05-21T00:59:57.025Z,92.8
2023-05-21T01:01:13.318Z,93.1
2023-05-21T01:02:29.610Z,93.3
2023-05-21T01:03:45.879Z,93.4
2023-05-21T01:05:02.196Z,93.3
2023-05-21T01:06:18.000Z,93.3
2023-05-21T01:07:33.768Z,93.3
2023-05-21T01:08:50.080Z,93.3
2023-05-21T01:10:06.384Z,93.5
2023-05-21T01:11:22.677Z,93.4
2023-05-21T01:12:38.972Z,93.5
2023-05-21T01:13:55.249Z,93.5
2023-05-21T01:15:11.545Z,93.7
2023-05-21T01:16:27.848Z,93.4
2023-05-21T01:17:44.140Z,93.7
2023-05-21T01:19:00.000Z,93.5
2023-05-21T01:20:16.726Z,93.6
2023-05-21T01:21:32.994Z,94
2023-05-21T01:22:49.311Z,93.9
2023-05-21T01:24:04.619Z,93.9
2023-05-21T01:25:20.912Z,93.8
2023-05-21T01:26:37.187Z,94.2
2023-05-21T01:27:53.497Z,94.3
2023-05-21T01:29:09.760Z,94.1
2023-05-21T01:30:26.082Z,94.3
2023-05-21T01:31:42.375Z,94.3
2023-05-21T01:32:58.665Z,94.3
2023-05-21T01:34:14.960Z,94.3
2023-05-21T01:35:31.253Z,94.5
2023-05-21T01:36:47.522Z,94.5
2023-05-21T01:38:03.838Z,94.5
2023-05-21T01:39:20.130Z,94.6
2023-05-21T01:40:35.439Z,94.7
2023-05-21T01:41:51.713Z,94.7
2023-05-21T01:43:08.001Z,94.8
2023-05-21T01:44:24.290Z,94.9
2023-05-21T01:45:40.598Z,94.9
2023-05-21T01:46:56.874Z,94.8
2023-05-21T01:48:13.195Z,94.7
2023-05-21T01:49:29.470Z,94.6
2023-05-21T01:50:45.769Z,94.5
2023-05-21T01:52:02.057Z,94.7
2023-05-21T01:53:18.365Z,94.8
2023-05-21T01:54:34.657Z,94.8
2023-05-21T01:55:50.950Z,94.9
2023-05-21T01:57:06.233Z,95
2023-05-21T01:58:22.522Z,95.1
2023-05-21T01:59:38.829Z,95.2
2023-05-21T02:00:55.137Z,95.3
2023-05-21T02:02:11.000Z,95.4
2023-05-21T02:03:27.722Z,95.3
2023-05-21T02:04:44.014Z,95.5
2023-05-21T02:06:00.307Z,95.5
2023-05-21T02:07:16.600Z,95.3
2023-05-21T02:08:32.892Z,95.2
2023-05-21T02:09:49.185Z,95.3
2023-05-21T02:11:05.478Z,95.5
2023-05-21T02:12:21.771Z,95.5
2023-05-21T02:13:37.079Z,95.7
2023-05-21T02:14:53.372Z,95.8
2023-05-21T02:16:09.665Z,95.8
2023-05-21T02:17:25.942Z,95.8
2023-05-21T02:18:42.250Z,95.8
2023-05-21T02:19:58.542Z,95.9
2023-05-21T02:21:14.835Z,96
2023-05-21T02:22:31.128Z,96.1
2023-05-21T02:23:47.421Z,96.3
2023-05-21T02:25:03.713Z,96.4
2023-05-21T02:26:20.006Z,96.4
2023-05-21T02:27:36.268Z,96.5
2023-05-21T02:28:52.561Z,96.5
2023-05-21T02:30:07.900Z,96.6
2023-05-21T02:31:24.178Z,96.8
2023-05-21T02:32:40.486Z,96.8
2023-05-21T02:33:56.780Z,96.6
2023-05-21T02:35:13.071Z,96.6
2023-05-21T02:36:29.355Z,96.6
2023-05-21T02:37:45.657Z,96.6
2023-05-21T02:39:01.950Z,96.7
2023-05-21T02:40:18.243Z,97
2023-05-21T02:41:34.482Z,97
2023-05-21T02:42:50.775Z,97
2023-05-21T02:44:07.068Z,96.9
2023-05-21T02:45:23.000Z,96.9
2023-05-21T02:46:38.572Z,96.9
2023-05-21T02:47:54.855Z,96.9
2023-05-21T02:49:11.148Z,96.6
2023-05-21T02:50:27.384Z,96.6
2023-05-21T02:51:43.637Z,96.7
2023-05-21T02:52:59.857Z,96.8
2023-05-21T02:54:16.180Z,96.8
2023-05-21T02:55:32.473Z,96.8
2023-05-21T02:56:48.722Z,96.9
2023-05-21T02:58:04.961Z,97
2023-05-21T02:59:21.200Z,97.1
2023-05-21T03:00:37.439Z,97.1
2023-05-21T03:01:53.678Z,97.2
2023-05-21T03:03:08.915Z,97.3
2023-05-21T03:04:25.171Z,97.5
2023-05-21T03:05:41.410Z,97.7
2023-05-21T03:06:57.619Z,97.7
2023-05-21T03:08:13.888Z,97.7
2023-05-21T03:09:30.127Z,97.7
2023-05-21T03:10:46.365Z,97.7
2023-05-21T03:12:02.604Z,97.5
2023-05-21T03:13:18.843Z,97.6
2023-05-21T03:14:35.082Z,97.5
2023-05-21T03:15:51.321Z,97.5
2023-05-21T03:17:07.560Z,97.5
2023-05-21T03:18:23.798Z,97.5
2023-05-21T03:19:39.030Z,97.3
2023-05-21T03:20:55.292Z,97.2
2023-05-21T03:22:11.531Z,97
2023-05-21T03:23:27.770Z,97
2023-05-21T03:24:44.008Z,96.9
2023-05-21T03:26:00.247Z,96.8
2023-05-21T03:27:16.486Z,96.7
2023-05-21T03:28:32.725Z,96.6
2023-05-21T03:29:48.964Z,96.8
2023-05-21T03:31:05.179Z,96.8
2023-05-21T03:32:21.441Z,96.9
2023-05-21T03:33:37.680Z,96.9
2023-05-21T03:34:53.919Z,97
2023-05-21T03:36:09.173Z,97
2023-05-21T03:37:25.412Z,97.3
2023-05-21T03:38:41.651Z,97.5
2023-05-21T03:39:57.890Z,97.8
2023-05-21T03:41:14.128Z,98.1
2023-05-21T03:42:30.368Z,98.2
2023-05-21T03:43:46.581Z,98.1
2023-05-21T03:45:02.819Z,98.1
2023-05-21T03:46:19.056Z,98
2023-05-21T03:47:35.323Z,98
2023-05-21T03:48:51.532Z,98
2023-05-21T03:50:07.771Z,97.9
2023-05-21T03:51:24.019Z,98
2023-05-21T03:52:40.399Z,97.9
2023-05-21T03:53:56.618Z,97.7
2023-05-21T03:55:12.860Z,97.7
2023-05-21T03:56:29.116Z,97.6
2023-05-21T03:57:45.000Z,97.5
2023-05-21T03:59:01.594Z,97.5
2023-05-21T04:00:17.803Z,97.5
2023-05-21T04:01:34.071Z,97.5
2023-05-21T04:02:50.303Z,97.5
2023-05-21T04:04:06.543Z,97.4
2023-05-21T04:05:22.787Z,97.4
2023-05-21T04:06:39.014Z,97.3
2023-05-21T04:07:55.243Z,97.1
2023-05-21T04:09:10.498Z,97.2
2023-05-21T04:10:26.755Z,97
2023-05-21T04:11:43.000Z,96.8
2023-05-21T04:12:59.212Z,96.8
2023-05-21T04:14:15.452Z,97
2023-05-21T04:15:31.684Z,96.8
2023-05-21T04:16:47.947Z,96.9
2023-05-21T04:18:04.170Z,96.9
2023-05-21T04:19:20.427Z,96.9
2023-05-21T04:20:36.645Z,96.8
2023-05-21T04:21:52.000Z,96.6
2023-05-21T04:23:09.121Z,96.5
2023-05-21T04:24:25.000Z,96.4
2023-05-21T04:25:40.607Z,96.5
2023-05-21T04:26:56.859Z,96.5
2023-05-21T04:28:13.087Z,96.4
2023-05-21T04:29:29.325Z,96.2
2023-05-21T04:30:45.587Z,96.2
2023-05-21T04:32:01.810Z,96.2
2023-05-21T04:33:18.041Z,96.1
2023-05-21T04:34:34.279Z,96.2
2023-05-21T04:35:50.560Z,96.2
2023-05-21T04:37:06.764Z,95.9
2023-05-21T04:38:22.996Z,95.7
2023-05-21T04:39:39.260Z,95.6
2023-05-21T04:40:55.476Z,95.5
2023-05-21T04:42:10.755Z,95.4
2023-05-21T04:43:26.992Z,95.4
2023-05-21T04:44:43.215Z,95.3
2023-05-21T04:45:59.444Z,95.3
2023-05-21T04:47:15.685Z,95.2
2023-05-21T04:48:31.928Z,95.1
2023-05-21T04:49:47.190Z,95.1
2023-05-21T04:51:03.451Z,95.1
2023-05-21T04:52:19.672Z,95.1
2023-05-21T04:53:35.912Z,95.1
2023-05-21T04:54:52.173Z,94.9
2023-05-21T04:56:08.376Z,94.8
2023-05-21T04:57:24.621Z,94.8
2023-05-21T04:58:40.852Z,94.8
2023-05-21T04:59:57.117Z,94.6
2023-05-21T05:01:13.355Z,94.6
2023-05-21T05:02:29.573Z,94.5
2023-05-21T05:03:45.813Z,94.4
2023-05-21T05:05:02.061Z,94.1
2023-05-21T05:06:17.328Z,94.2
2023-05-21T05:07:33.000Z,94
2023-05-21T05:08:49.788Z,93.9
2023-05-21T05:10:06.033Z,93.7
2023-05-21T05:11:22.264Z,93.6
2023-05-21T05:12:38.493Z,93.5
2023-05-21T05:13:54.000Z,93.6
2023-05-21T05:15:10.969Z,93.4
2023-05-21T05:16:27.213Z,93.1
2023-05-21T05:17:43.000Z,93.1
2023-05-21T05:18:59.000Z,92.8
2023-05-21T05:20:15.952Z,92.8
2023-05-21T05:21:32.178Z,92.5
2023-05-21T05:22:47.424Z,92.5
2023-05-21T05:24:03.665Z,92.4
2023-05-21T05:25:19.926Z,92.4
2023-05-21T05:26:36.144Z,92.1
2023-05-21T05:27:52.371Z,92.2
2023-05-21T05:29:08.618Z,92.2
2023-05-21T05:30:24.856Z,91.9
2023-05-21T05:31:41.096Z,91.8
2023-05-21T05:32:57.000Z,91.7
2023-05-21T05:34:13.586Z,91.7
2023-05-21T05:35:29.838Z,91.5
2023-05-21T05:36:46.046Z,91.1
2023-05-21T05:38:02.285Z,91.1
2023-05-21T05:39:17.543Z,90.9
2023-05-21T05:40:33.806Z,91.1
2023-05-21T05:41:50.018Z,90.7
2023-05-21T05:43:06.275Z,90.5
2023-05-21T05:44:22.510Z,90.6
2023-05-21T05:45:38.767Z,90.6
2023-05-21T05:46:54.972Z,90.3
2023-05-21T05:48:11.243Z,90.2
2023-05-21T05:49:27.466Z,90.2
2023-05-21T05:50:43.716Z,89.7
2023-05-21T05:51:59.929Z,89.7
2023-05-21T05:53:16.208Z,89.3
2023-05-21T05:54:32.444Z,89.3
2023-05-21T05:55:47.667Z,89
2023-05-21T05:57:03.931Z,88.8
2023-05-21T05:58:20.166Z,88.5
2023-05-21T05:59:36.412Z,88.3
2023-05-21T06:00:52.627Z,88
2023-05-21T06:02:08.856Z,88.1
2023-05-21T06:03:25.126Z,87.9
2023-05-21T06:04:41.334Z,87.5
2023-05-21T06:05:57.582Z,87
2023-05-21T06:07:13.839Z,86.7
2023-05-21T06:08:30.054Z,86.7
2023-05-21T06:09:46.290Z,87.1
2023-05-21T06:11:02.560Z,86.4
2023-05-21T06:12:17.815Z,86.4
2023-05-21T06:13:34.056Z,86.3
2023-05-21T06:14:50.265Z,85.9
2023-05-21T06:16:06.503Z,86
2023-05-21T06:17:22.769Z,85.8
2023-05-21T06:18:38.990Z,85
2023-05-21T06:19:55.256Z,85.5
2023-05-21T06:21:11.469Z,85.2
2023-05-21T06:22:27.701Z,85.4
2023-05-21T06:23:43.949Z,85.8
2023-05-21T06:25:00.191Z,84.9
2023-05-21T06:26:16.447Z,84.7
2023-05-21T06:27:32.666Z,84.8
2023-05-21T06:28:47.906Z,84.6
2023-05-21T06:30:04.000Z,84.3
2023-05-21T06:31:20.384Z,84.1
2023-05-21T06:32:36.626Z,84.2
2023-05-21T06:33:52.870Z,84.4
2023-05-21T06:35:09.109Z,84.4
2023-05-21T06:36:25.346Z,84
2023-05-21T06:37:41.585Z,84.4
2023-05-21T06:38:57.833Z,84
2023-05-21T06:40:14.063Z,84.2
2023-05-21T06:41:30.299Z,84.4
2023-05-21T06:42:46.542Z,83.6
2023-05-21T06:44:02.808Z,84.2
2023-05-21T06:45:18.061Z,83.8
2023-05-21T06:46:34.302Z,82.7
2023-05-21T06:47:50.551Z,82.3
2023-05-21T06:49:06.751Z,82.1
2023-05-21T06:50:22.992Z,81.7
2023-05-21T06:51:39.226Z,81.5
2023-05-21T06:52:55.498Z,81.2
2023-05-21T06:54:11.718Z,80.7
2023-05-21T06:55:27.954Z,81.6
2023-05-21T06:56:44.000Z,80.9
2023-05-21T06:58:00.435Z,80.9
2023-05-21T06:59:16.671Z,80.1
2023-05-21T07:00:32.000Z,79.2
2023-05-21T07:01:48.159Z,79.5
2023-05-21T07:03:04.435Z,80.7
2023-05-21T07:04:20.653Z,80.5
2023-05-21T07:05:36.905Z,80.5
2023-05-21T07:06:53.123Z,78.7
2023-05-21T07:08:09.362Z,78.9
2023-05-21T07:09:25.599Z,78.8
2023-05-21T07:10:41.841Z,78.3
2023-05-21T07:11:58.097Z,78
2023-05-21T07:13:14.309Z,76.7
2023-05-21T07:14:30.547Z,76.5
2023-05-21T07:15:46.798Z,76.4
2023-05-21T07:17:03.045Z,77.2
2023-05-21T07:18:18.280Z,78.3
2023-05-21T07:19:34.522Z,79
2023-05-21T07:20:50.762Z,78.6
2023-05-21T07:22:07.007Z,77.5
2023-05-21T07:23:23.270Z,77.6
2023-05-21T07:24:39.482Z,76.7
2023-05-21T07:25:55.731Z,77
2023-05-21T07:27:11.958Z,74.8
2023-05-21T07:28:28.206Z,74.7
2023-05-21T07:29:44.000Z,75.3
2023-05-21T07:31:00.000Z,75.4
2023-05-21T07:32:16.924Z,77
2023-05-21T07:33:33.159Z,75.7
2023-05-21T07:34:48.431Z,76.1
2023-05-21T07:36:04.683Z,76.2
2023-05-21T07:37:20.904Z,75.9
2023-05-21T07:38:37.162Z,77
2023-05-21T07:39:53.402Z,76.5
2023-05-21T07:41:09.628Z,74.9
2023-05-21T07:42:25.883Z,74.6
2023-05-21T07:43:42.136Z,74.3
2023-05-21T07:44:58.336Z,76.7
2023-05-21T07:46:14.603Z,75.7
2023-05-21T07:47:30.000Z,76.1
2023-05-21T07:48:47.084Z,75.1
2023-05-21T07:50:03.295Z,75.9
2023-05-21T07:51:18.547Z,75.9
2023-05-21T07:52:34.818Z,75.8
2023-05-21T07:53:51.029Z,73.1
2023-05-21T07:55:07.303Z,73.6
2023-05-21T07:56:23.521Z,75.2
2023-05-21T07:57:39.746Z,76.4
2023-05-21T07:58:55.997Z,73.7
2023-05-21T08:00:12.226Z,74.6
2023-05-21T08:01:28.494Z,74.6
2023-05-21T08:02:44.707Z,73.3
2023-05-21T08:04:00.993Z,73.5
2023-05-21T08:05:17.224Z,73.4
2023-05-21T08:06:33.420Z,74.5
2023-05-21T08:07:48.676Z,73.9
2023-05-21T08:09:04.000Z,73.1
2023-05-21T08:10:21.161Z,73.6
2023-05-21T08:11:37.428Z,73.3
2023-05-21T08:12:53.644Z,74
2023-05-21T08:14:09.886Z,73.4
2023-05-21T08:15:26.156Z,74
2023-05-21T08:16:42.361Z,72.3
2023-05-21T08:17:58.632Z,71.8
2023-05-21T08:19:14.876Z,71.8
2023-05-21T08:20:31.090Z,71.5
2023-05-21T08:21:47.000Z,72.9
2023-05-21T08:23:03.561Z,74.6
2023-05-21T08:24:18.851Z,73.8
2023-05-21T08:25:35.070Z,73.1
2023-05-21T08:26:51.299Z,72.9
2023-05-21T08:28:07.546Z,71.4
2023-05-21T08:29:23.804Z,72.8
2023-05-21T08:30:40.014Z,71.9
2023-05-21T08:31:56.285Z,71.9
2023-05-21T08:33:12.501Z,71.5
2023-05-21T08:34:28.735Z,72.3
2023-05-21T08:35:44.988Z,71.8
2023-05-21T08:37:01.232Z,71.6
2023-05-21T08:38:17.470Z,71
2023-05-21T08:39:33.701Z,71.9
2023-05-21T08:40:49.944Z,72.1
2023-05-21T08:42:05.204Z,69.6
2023-05-21T08:43:21.479Z,70.2
2023-05-21T08:44:37.712Z,68.4
2023-05-21T08:45:53.917Z,68.8
2023-05-21T08:47:10.189Z,71.8
2023-05-21T08:48:26.000Z,71.3
2023-05-21T08:49:42.680Z,69.3
2023-05-21T08:50:58.877Z,68.5
2023-05-21T08:52:15.121Z,71
2023-05-21T08:53:31.388Z,68.2
2023-05-21T08:54:47.605Z,68
2023-05-21T08:56:03.877Z,69.9
2023-05-21T08:57:20.123Z,68.3
2023-05-21T08:58:35.366Z,67.9
2023-05-21T08:59:51.577Z,67.6
2023-05-21T09:01:07.817Z,67.2
2023-05-21T09:02:24.090Z,68.3
2023-05-21T09:03:40.000Z,67.8
2023-05-21T09:04:55.558Z,68
2023-05-21T09:06:11.816Z,67.8
2023-05-21T09:07:28.036Z,66.1
2023-05-21T09:08:44.281Z,68.5
2023-05-21T09:10:00.000Z,67.6
2023-05-21T09:11:16.763Z,67.6
2023-05-21T09:12:33.031Z,67.6
2023-05-21T09:13:49.240Z,67
2023-05-21T09:15:05.513Z,68.2
2023-05-21T09:16:21.731Z,68.3
2023-05-21T09:17:37.963Z,68.3
2023-05-21T09:18:54.207Z,67.9
2023-05-21T09:20:10.479Z,67.9
2023-05-21T09:21:25.702Z,69.5
2023-05-21T09:22:41.978Z,67.8
2023-05-21T09:23:58.177Z,67.5
2023-05-21T09:25:14.422Z,63.1
2023-05-21T09:26:30.654Z,62.6
2023-05-21T09:27:46.908Z,64.5
2023-05-21T09:29:03.133Z,64.3
2023-05-21T09:30:19.388Z,63.5
2023-05-21T09:31:35.628Z,64.1
2023-05-21T09:32:51.852Z,62.5
2023-05-21T09:34:08.127Z,62.2
2023-05-21T09:35:24.337Z,63.8
2023-05-21T09:36:40.574Z,65.7
2023-05-21T09:37:55.829Z,62.9
2023-05-21T09:39:12.000Z,62.7
2023-05-21T09:40:28.319Z,61.8
2023-05-21T09:41:44.548Z,61
2023-05-21T09:43:00.791Z,61
2023-05-21T09:44:17.030Z,62.7
2023-05-21T09:45:33.269Z,61.5
2023-05-21T09:46:49.508Z,63.5
2023-05-21T09:48:05.745Z,64.2
2023-05-21T09:49:21.990Z,61.8
2023-05-21T09:50:38.236Z,62.7
2023-05-21T09:51:54.461Z,63.9
2023-05-21T09:53:10.701Z,61.1
2023-05-21T09:54:25.963Z,62.3
2023-05-21T09:55:42.196Z,61.4
2023-05-21T09:56:58.453Z,61.5
2023-05-21T09:58:14.682Z,63.7
2023-05-21T09:59:30.913Z,61.9
2023-05-21T10:00:47.157Z,59.5
2023-05-21T10:02:03.439Z,58.9
2023-05-21T10:03:19.666Z,59.9
2023-05-21T10:04:35.906Z,60.4
2023-05-21T10:05:52.113Z,60
2023-05-21T10:07:08.361Z,60.4
2023-05-21T10:08:24.603Z,61
2023-05-21T10:09:40.837Z,59
2023-05-21T10:10:56.079Z,62.3
2023-05-21T10:12:12.355Z,59
2023-05-21T10:13:28.558Z,59
2023-05-21T10:14:44.839Z,59.4
2023-05-21T10:16:01.000Z,56.9
2023-05-21T10:17:17.270Z,56.8
2023-05-21T10:18:33.514Z,54.7
2023-05-21T10:19:49.788Z,53.5
2023-05-21T10:21:05.985Z,53.2
2023-05-21T10:22:22.229Z,52.6
2023-05-21T10:23:38.465Z,53.6
2023-05-21T10:24:54.699Z,53.1
2023-05-21T10:26:10.950Z,53.3
2023-05-21T10:27:26.230Z,52.8
2023-05-21T10:28:42.470Z,53.6
2023-05-21T10:29:58.709Z,53
2023-05-21T10:31:14.921Z,54.4
2023-05-21T10:32:31.158Z,52
2023-05-21T10:33:47.392Z,51.9
2023-05-21T10:35:03.667Z,52.5
2023-05-21T10:36:19.902Z,51.6
2023-05-21T10:37:36.100Z,50
2023-05-21T10:38:52.351Z,49.5
2023-05-21T10:40:08.611Z,48.7
2023-05-21T10:41:24.863Z,52
2023-05-21T10:42:41.060Z,48.8
2023-05-21T10:43:56.310Z,50
2023-05-21T10:45:12.551Z,48
2023-05-21T10:46:28.786Z,49.7
2023-05-21T10:47:45.029Z,50.4
2023-05-21T10:49:01.267Z,50.2
2023-05-21T10:50:17.548Z,48.6
2023-05-21T10:51:33.786Z,46.8
2023-05-21T10:52:49.980Z,46.5
2023-05-21T10:54:06.231Z,46.3
2023-05-21T10:55:22.474Z,47.6
2023-05-21T10:56:38.703Z,47.9
2023-05-21T10:57:54.951Z,47.3
2023-05-21T10:59:11.218Z,47.2
2023-05-21T11:00:26.000Z,45.7
2023-05-21T11:01:42.675Z,46.8
2023-05-21T11:02:58.922Z,45.3
2023-05-21T11:04:15.153Z,45.7
2023-05-21T11:05:31.429Z,46.2
2023-05-21T11:06:47.674Z,44.4
2023-05-21T11:08:03.000Z,44.6
2023-05-21T11:09:20.122Z,44.3
2023-05-21T11:10:36.351Z,46.3
2023-05-21T11:11:52.639Z,45.8
2023-05-21T11:13:08.870Z,46.2
2023-05-21T11:14:25.067Z,46.4
2023-05-21T11:15:41.344Z,47.2
2023-05-21T11:16:56.571Z,46.8
2023-05-21T11:18:12.800Z,46.3
2023-05-21T11:19:29.054Z,48.5
2023-05-21T11:20:45.332Z,45.4
2023-05-21T11:22:01.518Z,46.3
2023-05-21T11:23:17.766Z,47.8
2023-05-21T11:24:33.996Z,48.3
2023-05-21T11:25:50.245Z,48
2023-05-21T11:27:06.474Z,48.7
2023-05-21T11:28:22.758Z,47.8
2023-05-21T11:29:38.949Z,46.7
2023-05-21T11:30:55.235Z,45.8
2023-05-21T11:32:11.433Z,46.3
2023-05-21T11:33:27.842Z,47.7
2023-05-21T11:34:44.076Z,48
2023-05-21T11:36:00.320Z,47.4
2023-05-21T11:37:16.566Z,46
2023-05-21T11:38:32.801Z,45.3
2023-05-21T11:39:49.000Z,45.1
2023-05-21T11:41:05.234Z,45.2
2023-05-21T11:42:21.511Z,44.8
2023-05-21T11:43:37.706Z,44.5
2023-05-21T11:44:53.959Z,46.3
2023-05-21T11:46:10.187Z,45.1
2023-05-21T11:47:26.473Z,44.8
2023-05-21T11:48:42.664Z,44.1
2023-05-21T11:49:57.924Z,44.9
2023-05-21T11:51:14.160Z,44.6
2023-05-21T11:52:30.404Z,45
2023-05-21T11:53:46.643Z,44.4
2023-05-21T11:55:02.886Z,44.9
2023-05-21T11:56:19.133Z,44.3
2023-05-21T11:57:35.369Z,44.1
2023-05-21T11:58:51.645Z,44
2023-05-21T12:00:07.888Z,44.9
2023-05-21T12:01:24.116Z,44
2023-05-21T12:02:40.368Z,46.3
2023-05-21T12:03:56.570Z,44.4
2023-05-21T12:05:12.846Z,45.4
2023-05-21T12:06:28.071Z,46.5
2023-05-21T12:07:44.342Z,47.2
2023-05-21T12:09:00.588Z,46.2
2023-05-21T12:10:16.778Z,46.3
2023-05-21T12:11:33.036Z,44.9
2023-05-21T12:12:49.308Z,43.3
2023-05-21T12:14:05.549Z,46.1
2023-05-21T12:15:21.749Z,45.9
2023-05-21T12:16:37.981Z,47.9
2023-05-21T12:17:54.278Z,45.8
2023-05-21T12:19:10.461Z,45.2
2023-05-21T12:20:26.745Z,44.4
2023-05-21T12:21:42.959Z,45.1
2023-05-21T12:22:58.198Z,44
2023-05-21T12:24:14.487Z,43.3
2023-05-21T12:25:30.724Z,43.2
2023-05-21T12:26:46.923Z,42.7
2023-05-21T12:28:03.175Z,42.7
2023-05-21T12:29:19.404Z,42.2
2023-05-21T12:30:35.638Z,41.8
2023-05-21T12:31:51.928Z,42.8
2023-05-21T12:33:08.181Z,43.2
2023-05-21T12:34:24.369Z,43.2
2023-05-21T12:35:40.653Z,44.4
2023-05-21T12:36:56.888Z,45.3
2023-05-21T12:38:13.095Z,45.4
2023-05-21T12:39:28.335Z,46
2023-05-21T12:40:44.575Z,44.3
2023-05-21T12:42:00.860Z,45.2
2023-05-21T12:43:17.107Z,44.7
2023-05-21T12:44:33.310Z,44.9
2023-05-21T12:45:49.544Z,44.9
2023-05-21T12:47:05.810Z,45.6
2023-05-21T12:48:22.069Z,46.5
2023-05-21T12:49:38.262Z,44.2
2023-05-21T12:50:54.542Z,44.1
2023-05-21T12:52:10.791Z,45.1
2023-05-21T12:53:27.037Z,42.7
2023-05-21T12:54:43.226Z,43.9
2023-05-21T12:55:58.526Z,44.9
2023-05-21T12:57:14.763Z,46.8
2023-05-21T12:58:30.967Z,44.7
2023-05-21T12:59:47.240Z,43.6
2023-05-21T13:01:03.479Z,43.4
2023-05-21T13:02:19.684Z,43.1
2023-05-21T13:03:35.916Z,42.7
2023-05-21T13:04:52.211Z,42.9
2023-05-21T13:06:08.393Z,43.8
2023-05-21T13:07:24.640Z,43.8
2023-05-21T13:08:40.000Z,44.4
2023-05-21T13:09:57.130Z,42.8
2023-05-21T13:11:13.362Z,44.6
2023-05-21T13:12:28.613Z,45.1
2023-05-21T13:13:44.914Z,44.1
2023-05-21T13:15:01.110Z,44
2023-05-21T13:16:17.338Z,43.2
2023-05-21T13:17:33.592Z,44.3
2023-05-21T13:18:49.813Z,44.1
2023-05-21T13:20:05.076Z,44.4
2023-05-21T13:21:21.370Z,45.8
2023-05-21T13:22:37.567Z,46
2023-05-21T13:23:53.795Z,45.7
2023-05-21T13:25:10.053Z,45.7
2023-05-21T13:26:26.000Z,44.1
2023-05-21T13:27:42.517Z,44.4
2023-05-21T13:28:58.805Z,44.9
2023-05-21T13:30:15.007Z,45.6
2023-05-21T13:31:31.285Z,46
2023-05-21T13:32:47.478Z,46.2
2023-05-21T13:34:03.714Z,46.7
2023-05-21T13:35:20.008Z,46
2023-05-21T13:36:35.269Z,47
2023-05-21T13:37:51.462Z,46.5
2023-05-21T13:39:07.693Z,46.4
2023-05-21T13:40:23.991Z,47
2023-05-21T13:41:40.183Z,46.8
2023-05-21T13:42:56.415Z,46.1
2023-05-21T13:44:12.666Z,46.2
2023-05-21T13:45:28.890Z,46.1
2023-05-21T13:46:45.194Z,45.9
2023-05-21T13:48:01.386Z,45.4
2023-05-21T13:49:17.612Z,44
2023-05-21T13:50:33.862Z,44.3
2023-05-21T13:51:50.110Z,44.2
2023-05-21T13:53:05.359Z,42.9
2023-05-21T13:54:21.597Z,42.6
2023-05-21T13:55:37.838Z,42.8
2023-05-21T13:56:54.073Z,42.9
2023-05-21T13:58:10.316Z,42.9
2023-05-21T13:59:26.604Z,42.5
2023-05-21T14:00:42.790Z,42.7
2023-05-21T14:01:59.077Z,41.8
2023-05-21T14:03:15.270Z,41.5
2023-05-21T14:04:31.516Z,41.3
2023-05-21T14:05:47.804Z,41.7
2023-05-21T14:07:03.998Z,41.5
2023-05-21T14:08:20.236Z,41.4
2023-05-21T14:09:35.490Z,41.5
2023-05-21T14:10:51.730Z,41.7
2023-05-21T14:12:07.966Z,41.7
2023-05-21T14:13:24.258Z,41.7
2023-05-21T14:14:40.481Z,42.3
2023-05-21T14:15:56.702Z,42.7
2023-05-21T14:17:12.935Z,42.3
2023-05-21T14:18:29.236Z,42.4
2023-05-21T14:19:45.424Z,41.3
2023-05-21T14:21:01.713Z,42.1
2023-05-21T14:22:17.921Z,42.4
2023-05-21T14:23:34.177Z,43.2
2023-05-21T14:24:50.371Z,43.9
2023-05-21T14:26:06.793Z,43.9
2023-05-21T14:27:22.975Z,44.4
2023-05-21T14:28:39.208Z,44.6
2023-05-21T14:29:55.450Z,44.6
2023-05-21T14:31:11.746Z,45.2
2023-05-21T14:32:27.942Z,45.1
2023-05-21T14:33:44.182Z,45.2
2023-05-21T14:35:00.423Z,44.5
2023-05-21T14:36:16.648Z,44.4
2023-05-21T14:37:32.939Z,43.3
2023-05-21T14:38:49.185Z,43.9
2023-05-21T14:40:05.373Z,43.6
2023-05-21T14:41:21.621Z,41.8
2023-05-21T14:42:36.917Z,42
2023-05-21T14:43:53.110Z,41.9
2023-05-21T14:45:09.364Z,42.3
2023-05-21T14:46:25.642Z,43
2023-05-21T14:47:41.886Z,42.8
2023-05-21T14:48:58.100Z,45.6
2023-05-21T14:50:14.314Z,43.8
2023-05-21T14:51:30.597Z,43.9
2023-05-21T14:52:46.838Z,44.2
2023-05-21T14:54:03.031Z,43.8
2023-05-21T14:55:19.301Z,43
2023-05-21T14:56:35.567Z,42.6
2023-05-21T14:57:51.750Z,42.5
2023-05-21T14:59:07.052Z,42.6
2023-05-21T15:00:23.259Z,42.5
2023-05-21T15:01:39.500Z,42.4
2023-05-21T15:02:55.732Z,43.6
2023-05-21T15:04:11.971Z,43.8
2023-05-21T15:05:28.201Z,43.9
2023-05-21T15:06:44.442Z,43.3
2023-05-21T15:08:00.740Z,43.4
2023-05-21T15:09:16.923Z,43.3
2023-05-21T15:10:33.223Z,44.2
2023-05-21T15:11:49.413Z,44.9
2023-05-21T15:13:05.653Z,45
2023-05-21T15:14:21.898Z,45.5
2023-05-21T15:15:37.137Z,44.9
2023-05-21T15:16:53.392Z,43.7
2023-05-21T15:18:09.626Z,44.4
2023-05-21T15:19:25.915Z,44.7
2023-05-21T15:20:42.099Z,44
2023-05-21T15:21:58.357Z,45.1
2023-05-21T15:23:14.639Z,45
2023-05-21T15:24:30.823Z,45
2023-05-21T15:25:47.096Z,45.4
2023-05-21T15:27:03.304Z,44.7
2023-05-21T15:28:19.596Z,44.7
2023-05-21T15:29:35.789Z,44.8
2023-05-21T15:30:52.086Z,45.4
2023-05-21T15:32:07.332Z,44.3
2023-05-21T15:33:23.572Z,44.4
2023-05-21T15:34:39.767Z,45.1
2023-05-21T15:35:55.997Z,45.4
2023-05-21T15:37:12.252Z,45.4
2023-05-21T15:38:28.486Z,45.9
2023-05-21T15:39:44.772Z,45.6
2023-05-21T15:41:00.967Z,45.4
2023-05-21T15:42:17.262Z,45.5
2023-05-21T15:43:33.493Z,45
2023-05-21T15:44:49.682Z,44.8
2023-05-21T15:46:05.930Z,45.3
2023-05-21T15:47:22.218Z,45
2023-05-21T15:48:37.429Z,44.6
2023-05-21T15:49:53.712Z,44.9
2023-05-21T15:51:09.948Z,44.5
2023-05-21T15:52:26.137Z,44.6
2023-05-21T15:53:42.430Z,44.9
2023-05-21T15:54:58.671Z,45
2023-05-21T15:56:14.852Z,44.3
2023-05-21T15:57:31.000Z,45.6
2023-05-21T15:58:47.337Z,43.8
2023-05-21T16:00:03.574Z,45.7
2023-05-21T16:01:19.821Z,45.1
2023-05-21T16:02:36.062Z,45
2023-05-21T16:03:52.294Z,44.9
2023-05-21T16:05:07.611Z,44.8
2023-05-21T16:06:23.848Z,45.1
2023-05-21T16:07:40.091Z,45.3
2023-05-21T16:08:56.284Z,45.6
2023-05-21T16:10:12.527Z,45.2
2023-05-21T16:11:28.752Z,45.4
2023-05-21T16:12:44.990Z,45.8
2023-05-21T16:14:01.239Z,45.8
2023-05-21T16:15:17.525Z,45.6
2023-05-21T16:16:33.765Z,45.8
2023-05-21T16:17:50.008Z,46.8
2023-05-21T16:19:06.259Z,47.8
2023-05-21T16:20:22.433Z,47
2023-05-21T16:21:37.748Z,46.9
2023-05-21T16:22:53.987Z,47.7
2023-05-21T16:24:10.172Z,47.3
2023-05-21T16:25:26.410Z,47.4
2023-05-21T16:26:42.647Z,48
2023-05-21T16:27:58.891Z,48.6
2023-05-21T16:29:15.139Z,49.3
2023-05-21T16:30:31.380Z,49.4
2023-05-21T16:31:47.664Z,49
2023-05-21T16:33:03.916Z,49
2023-05-21T16:34:20.156Z,48.8
2023-05-21T16:35:36.335Z,47.6
2023-05-21T16:36:52.630Z,47.7
2023-05-21T16:38:07.825Z,47.5
2023-05-21T16:39:24.121Z,47.4
2023-05-21T16:40:40.362Z,47.8
2023-05-21T16:41:56.548Z,47.8
2023-05-21T16:43:12.804Z,46.2
2023-05-21T16:44:29.038Z,46.5
2023-05-21T16:45:45.336Z,45.7
2023-05-21T16:47:01.507Z,46
2023-05-21T16:48:17.759Z,46.1
2023-05-21T16:49:34.047Z,46.6
2023-05-21T16:50:50.241Z,46.1
2023-05-21T16:52:06.467Z,46.4
2023-05-21T16:53:22.707Z,46.9
2023-05-21T16:54:37.973Z,46.6
2023-05-21T16:55:54.215Z,47.1
2023-05-21T16:57:10.450Z,47.3
2023-05-21T16:58:26.687Z,48.7
2023-05-21T16:59:42.922Z,47.8
2023-05-21T17:00:59.170Z,48